KSKA/SKA METAR and TAF weather

Enter ICAO airport designator
Station Type Date Time Source
KSKA METAR 2020/03/28 12:58 UTC NOAA

KSKA 281258Z 17005KT 10SM BKN085 01/01 A2997 RMK AO2A SLP168 T00140014 $


Station Type Date Time Source
KSKA Decoded METAR 2020/03/28 12:58 UTC NOAA

Fairchild Air Force Base, WA, United States (KSKA) 47-37N 117-39W
Mar 28, 2020 - 08:58 AM EDT / 2020.03.28 1258 UTC
Wind: from the S (170 degrees) at 6 MPH (5 KT):0
Visibility: 10 mile(s):0
Sky conditions: mostly cloudy
Temperature: 34.5 F (1.4 C)
Windchill: 28 F (-2 C):1
Dew Point: 34.5 F (1.4 C)
Relative Humidity: 100%
Pressure (altimeter): 29.97 in. Hg (1014 hPa)
ob: KSKA 281258Z 17005KT 10SM BKN085 01/01 A2997 RMK AO2A SLP168 T00140014
cycle: 13

Station Type Date Time Source
KSKA TAF 2020/03/28 11:03 UTC NOAA

TAF TAF KSKA 281100Z 2811/2917 20009KT 9999 BKN080 QNH2996INS
BECMG 2817/2818 19012G18KT 9000 -SHRA BKN025 OVC040 610309 QNH2989INS
BECMG 2901/2902 18009KT 9999 NSW SCT025 BKN045 QNH2987INS
BECMG 2905/2906 23006KT 9000 -RA BKN015 OVC030 QNH2980INS TX10/2823Z TN01/2821Z

Example: see airport list